createdAt,value
2023-03-11T00:02:18.039Z,30.30
2023-03-11T00:04:44.403Z,30.29
2023-03-11T00:07:10.773Z,30.11
2023-03-11T00:09:37.140Z,30.22
2023-03-11T00:12:03.531Z,30.01
2023-03-11T00:14:29.868Z,30.47
2023-03-11T00:16:56.235Z,30.24
2023-03-11T00:19:22.568Z,30.17
2023-03-11T00:21:48.924Z,30.24
2023-03-11T00:24:15.289Z,30.30
2023-03-11T00:26:41.656Z,30.12
2023-03-11T00:29:08.010Z,30.28
2023-03-11T00:31:34.326Z,30.57
2023-03-11T00:34:00.627Z,30.30
2023-03-11T00:36:26.917Z,30.14
2023-03-11T00:38:53.374Z,30.16
2023-03-11T00:41:19.770Z,30.35
2023-03-11T00:43:46.096Z,30.24
2023-03-11T00:46:12.586Z,30.09
2023-03-11T00:48:38.957Z,30.06
2023-03-11T00:51:05.286Z,29.92
2023-03-11T00:53:31.615Z,30.07
2023-03-11T00:55:57.966Z,29.98
2023-03-11T00:58:24.292Z,30.35
2023-03-11T01:00:50.638Z,30.30
2023-03-11T01:03:16.940Z,30.22
2023-03-11T01:05:43.305Z,29.64
2023-03-11T01:08:09.653Z,29.92
2023-03-11T01:10:36.016Z,30.10
2023-03-11T01:13:02.367Z,29.91
2023-03-11T01:15:28.699Z,30.27
2023-03-11T01:17:55.019Z,30.09
2023-03-11T01:20:21.320Z,30.19
2023-03-11T01:22:47.686Z,29.92
2023-03-11T01:25:13.998Z,30.04
2023-03-11T01:27:40.360Z,30.47
2023-03-11T01:30:06.745Z,29.80
2023-03-11T01:32:33.159Z,30.09
2023-03-11T01:34:59.588Z,30.24
2023-03-11T01:37:25.966Z,30.19
2023-03-11T01:39:52.322Z,29.96
2023-03-11T01:42:18.676Z,30.21
2023-03-11T01:44:45.032Z,29.91
2023-03-11T01:47:11.360Z,29.88
2023-03-11T01:49:37.674Z,29.98
2023-03-11T01:52:04.067Z,29.70
2023-03-11T01:54:30.434Z,30.09
2023-03-11T01:56:56.764Z,29.94
2023-03-11T01:59:23.132Z,30.17
2023-03-11T02:01:49.540Z,30.03
2023-03-11T02:04:15.912Z,29.66
2023-03-11T02:06:42.263Z,29.87
2023-03-11T02:09:08.596Z,30.35
2023-03-11T02:11:35.003Z,29.83
2023-03-11T02:14:01.352Z,29.83
2023-03-11T02:16:27.794Z,29.92
2023-03-11T02:18:54.185Z,29.78
2023-03-11T02:21:20.518Z,29.65
2023-03-11T02:23:46.862Z,30.11
2023-03-11T02:26:13.166Z,29.97
2023-03-11T02:28:39.530Z,29.94
2023-03-11T02:31:05.888Z,30.12
2023-03-11T02:33:32.261Z,29.94
2023-03-11T02:35:58.677Z,29.96
2023-03-11T02:38:25.008Z,30.14
2023-03-11T02:40:51.375Z,30.00
2023-03-11T02:43:17.737Z,30.08
2023-03-11T02:45:44.091Z,30.37
2023-03-11T02:48:10.448Z,29.87
2023-03-11T02:50:36.927Z,29.91
2023-03-11T02:53:03.271Z,30.21
2023-03-11T02:55:29.628Z,30.25
2023-03-11T02:57:55.969Z,30.12
2023-03-11T03:00:22.282Z,30.09
2023-03-11T03:02:48.673Z,30.17
2023-03-11T03:05:14.992Z,29.99
2023-03-11T03:07:41.316Z,29.97
2023-03-11T03:10:07.629Z,30.05
2023-03-11T03:12:33.999Z,29.92
2023-03-11T03:15:00.384Z,30.13
2023-03-11T03:17:26.745Z,29.90
2023-03-11T03:19:53.095Z,30.35
2023-03-11T03:22:19.450Z,30.29
2023-03-11T03:24:45.778Z,29.87
2023-03-11T03:27:12.082Z,30.06
2023-03-11T03:29:38.543Z,30.20
2023-03-11T03:32:04.938Z,29.80
2023-03-11T03:34:31.307Z,30.15
2023-03-11T03:36:57.696Z,30.34
2023-03-11T03:39:24.075Z,30.10
2023-03-11T03:41:50.435Z,30.04
2023-03-11T03:44:16.817Z,29.85
2023-03-11T03:46:43.194Z,30.12
2023-03-11T03:49:09.518Z,29.97
2023-03-11T03:51:35.820Z,30.05
2023-03-11T03:54:02.174Z,30.12
2023-03-11T03:56:28.606Z,29.78
2023-03-11T03:58:54.967Z,30.27
2023-03-11T04:01:21.310Z,29.97
2023-03-11T04:03:47.729Z,30.29
2023-03-11T04:06:14.071Z,30.38
2023-03-11T04:08:40.449Z,30.24
2023-03-11T04:11:06.814Z,30.12
2023-03-11T04:13:33.114Z,30.11
2023-03-11T04:15:59.444Z,29.74
2023-03-11T04:18:25.887Z,30.07
2023-03-11T04:20:52.245Z,29.99
2023-03-11T04:23:18.605Z,30.15
2023-03-11T04:25:44.906Z,30.40
2023-03-11T04:28:11.269Z,30.35
2023-03-11T04:30:37.638Z,30.32
2023-03-11T04:33:04.034Z,29.96
2023-03-11T04:35:30.385Z,30.24
2023-03-11T04:37:56.707Z,30.60
2023-03-11T04:40:23.009Z,29.98
2023-03-11T04:42:49.311Z,30.32
2023-03-11T04:45:15.617Z,30.27
2023-03-11T04:47:42.007Z,30.04
2023-03-11T04:50:08.330Z,30.49
2023-03-11T04:52:34.701Z,30.35
2023-03-11T04:55:01.056Z,30.10
2023-03-11T04:57:27.367Z,30.33
2023-03-11T04:59:53.736Z,30.29
2023-03-11T05:02:20.096Z,30.16
2023-03-11T05:04:46.460Z,30.36
2023-03-11T05:07:12.793Z,30.16
2023-03-11T05:09:39.151Z,30.59
2023-03-11T05:12:05.478Z,30.25
2023-03-11T05:14:31.838Z,30.23
2023-03-11T05:16:58.211Z,30.66
2023-03-11T05:19:24.587Z,30.48
2023-03-11T05:21:51.145Z,30.33
2023-03-11T05:24:17.466Z,30.29
2023-03-11T05:26:43.800Z,30.17
2023-03-11T05:29:10.102Z,30.42
2023-03-11T05:31:36.485Z,30.25
2023-03-11T05:34:02.850Z,30.45
2023-03-11T05:36:29.168Z,30.45
2023-03-11T05:38:55.541Z,30.67
2023-03-11T05:41:21.956Z,30.39
2023-03-11T05:43:48.334Z,30.33
2023-03-11T05:46:14.721Z,30.57
2023-03-11T05:48:41.088Z,30.54
2023-03-11T05:51:07.418Z,30.59
2023-03-11T05:53:33.772Z,30.42
2023-03-11T05:56:00.129Z,30.41
2023-03-11T05:58:26.473Z,30.57
2023-03-11T06:00:52.788Z,30.37
2023-03-11T06:03:19.193Z,30.47
2023-03-11T06:05:45.538Z,30.31
2023-03-11T06:08:11.842Z,30.46
2023-03-11T06:10:38.356Z,30.11
2023-03-11T06:13:04.715Z,30.23
2023-03-11T06:15:31.034Z,30.55
2023-03-11T06:17:57.395Z,30.36
2023-03-11T06:20:23.720Z,30.36
2023-03-11T06:22:50.069Z,30.50
2023-03-11T06:25:16.381Z,30.68
2023-03-11T06:27:42.684Z,30.45
2023-03-11T06:30:09.064Z,30.28
2023-03-11T06:32:35.482Z,30.31
2023-03-11T06:35:01.882Z,30.68
2023-03-11T06:37:28.218Z,30.47
2023-03-11T06:39:54.590Z,30.42
2023-03-11T06:42:20.932Z,30.49
2023-03-11T06:44:47.309Z,30.18
2023-03-11T06:47:13.674Z,30.38
2023-03-11T06:49:40.045Z,30.25
2023-03-11T06:52:06.400Z,30.09
2023-03-11T06:54:32.758Z,30.23
2023-03-11T06:56:59.071Z,30.31
2023-03-11T06:59:25.425Z,30.35
2023-03-11T07:01:51.961Z,30.42
2023-03-11T07:04:18.357Z,30.37
2023-03-11T07:06:44.715Z,31.11
2023-03-11T07:09:11.121Z,31.28
2023-03-11T07:11:37.449Z,31.63
2023-03-11T07:14:03.842Z,31.28
2023-03-11T07:16:30.230Z,31.26
2023-03-11T07:18:56.594Z,31.07
2023-03-11T07:21:22.970Z,30.80
2023-03-11T07:23:49.290Z,30.92
2023-03-11T07:26:15.660Z,30.56
2023-03-11T07:28:41.995Z,30.45
2023-03-11T07:31:08.345Z,30.79
2023-03-11T07:33:34.694Z,30.43
2023-03-11T07:36:01.050Z,30.73
2023-03-11T07:38:27.395Z,30.53
2023-03-11T07:40:53.732Z,30.88
2023-03-11T07:43:20.061Z,30.86
2023-03-11T07:45:46.620Z,30.89
2023-03-11T07:48:12.959Z,30.52
2023-03-11T07:50:39.358Z,31.18
2023-03-11T07:53:05.982Z,30.57
2023-03-11T07:55:32.347Z,30.72
2023-03-11T07:57:58.672Z,30.38
2023-03-11T08:00:25.054Z,30.69
2023-03-11T08:02:51.388Z,30.31
2023-03-11T08:05:17.739Z,30.07
2023-03-11T08:07:44.116Z,30.20
2023-03-11T08:10:10.506Z,30.27
2023-03-11T08:12:36.884Z,30.25
2023-03-11T08:15:03.255Z,29.82
2023-03-11T08:17:29.639Z,30.35
2023-03-11T08:19:56.021Z,30.21
2023-03-11T08:22:22.392Z,30.51
2023-03-11T08:24:48.720Z,30.37
2023-03-11T08:27:15.046Z,30.05
2023-03-11T08:29:41.591Z,30.32
2023-03-11T08:32:08.105Z,30.08
2023-03-11T08:34:34.598Z,30.00
2023-03-11T08:37:01.269Z,29.99
2023-03-11T08:39:27.658Z,29.34
2023-03-11T08:41:54.095Z,29.71
2023-03-11T08:44:20.478Z,29.67
2023-03-11T08:46:47.097Z,29.75
2023-03-11T08:49:13.449Z,29.50
2023-03-11T08:51:39.742Z,29.58
2023-03-11T08:54:06.100Z,29.12
2023-03-11T08:56:32.450Z,29.54
2023-03-11T08:58:58.807Z,29.49
2023-03-11T09:01:25.147Z,29.76
2023-03-11T09:03:51.476Z,29.95
2023-03-11T09:06:17.881Z,29.98
2023-03-11T09:08:44.294Z,30.22
2023-03-11T09:11:10.667Z,29.97
2023-03-11T09:13:37.009Z,30.14
2023-03-11T09:16:03.407Z,29.77
2023-03-11T09:18:29.755Z,29.59
2023-03-11T09:20:56.102Z,29.55
2023-03-11T09:23:22.498Z,30.16
2023-03-11T09:25:48.938Z,31.71
2023-03-11T09:28:15.338Z,32.87
2023-03-11T09:30:41.691Z,34.16
2023-03-11T09:33:08.031Z,34.61
2023-03-11T09:35:34.469Z,34.04
2023-03-11T09:38:00.916Z,33.10
2023-03-11T09:40:27.289Z,32.60
2023-03-11T09:42:53.696Z,32.32
2023-03-11T09:45:20.058Z,32.30
2023-03-11T09:47:46.504Z,32.37
2023-03-11T09:50:12.933Z,32.56
2023-03-11T09:52:39.382Z,32.55
2023-03-11T09:55:05.816Z,32.98
2023-03-11T09:57:32.237Z,32.77
2023-03-11T09:59:58.580Z,32.54
2023-03-11T10:02:25.118Z,32.75
2023-03-11T10:04:51.612Z,33.15
2023-03-11T10:07:17.999Z,33.19
2023-03-11T10:09:44.447Z,33.61
2023-03-11T10:12:10.828Z,32.75
2023-03-11T10:14:37.202Z,33.12
2023-03-11T10:17:03.623Z,32.25
2023-03-11T10:19:30.066Z,32.55
2023-03-11T10:21:56.512Z,32.22
2023-03-11T10:24:22.866Z,32.99
2023-03-11T10:26:49.228Z,32.33
2023-03-11T10:29:15.729Z,31.98
2023-03-11T10:31:42.070Z,31.96
2023-03-11T10:34:08.478Z,31.49
2023-03-11T10:36:34.868Z,32.55
2023-03-11T10:39:01.272Z,32.69
2023-03-11T10:41:27.613Z,32.71
2023-03-11T10:43:53.935Z,32.78
2023-03-11T10:46:20.320Z,32.78
2023-03-11T10:48:46.671Z,32.71
2023-03-11T10:51:13.005Z,33.03
2023-03-11T10:53:39.343Z,32.88
2023-03-11T10:56:05.729Z,33.17
2023-03-11T10:58:32.126Z,33.13
2023-03-11T11:00:58.618Z,32.66
2023-03-11T11:03:25.027Z,32.74
2023-03-11T11:05:51.378Z,33.72
2023-03-11T11:08:17.719Z,35.46
2023-03-11T11:10:44.060Z,35.42
2023-03-11T11:13:10.475Z,36.86
2023-03-11T11:15:36.900Z,35.67
2023-03-11T11:18:03.230Z,35.85
2023-03-11T11:20:29.708Z,36.76
2023-03-11T11:22:56.165Z,35.57
2023-03-11T11:25:22.584Z,35.88
2023-03-11T11:27:48.984Z,35.14
2023-03-11T11:30:15.343Z,34.51
2023-03-11T11:32:41.758Z,34.14
2023-03-11T11:35:08.209Z,34.60
2023-03-11T11:37:34.625Z,34.26
2023-03-11T11:40:00.984Z,33.60
2023-03-11T11:42:27.396Z,33.26
2023-03-11T11:44:53.788Z,33.41
2023-03-11T11:47:20.172Z,34.20
2023-03-11T11:49:46.602Z,36.88
2023-03-11T11:52:13.033Z,34.09
2023-03-11T11:54:39.368Z,33.06
2023-03-11T11:57:05.813Z,33.77
2023-03-11T11:59:32.170Z,32.97
2023-03-11T12:01:58.838Z,34.35
2023-03-11T12:04:25.203Z,35.61
2023-03-11T12:06:51.605Z,36.01
2023-03-11T12:09:18.036Z,37.98
2023-03-11T12:11:44.436Z,35.20
2023-03-11T12:14:10.826Z,34.11
2023-03-11T12:16:37.224Z,33.59
2023-03-11T12:19:03.962Z,33.75
2023-03-11T12:21:30.353Z,32.64
2023-03-11T12:23:56.748Z,32.75
2023-03-11T12:26:23.096Z,33.52
2023-03-11T12:28:49.504Z,32.33
2023-03-11T12:31:15.850Z,32.27
2023-03-11T12:33:42.213Z,32.64
2023-03-11T12:36:08.669Z,32.49
2023-03-11T12:38:35.049Z,32.26
2023-03-11T12:41:01.545Z,32.27
2023-03-11T12:43:27.906Z,32.44
2023-03-11T12:45:54.231Z,31.52
2023-03-11T12:48:20.610Z,31.67
2023-03-11T12:50:46.986Z,31.73
2023-03-11T12:53:13.713Z,31.81
2023-03-11T12:55:40.165Z,31.58
2023-03-11T12:58:06.540Z,31.64
2023-03-11T13:00:32.919Z,31.54
2023-03-11T13:02:59.314Z,31.47
2023-03-11T13:05:25.930Z,31.49
2023-03-11T13:07:52.320Z,31.46
2023-03-11T13:10:18.652Z,31.13
2023-03-11T13:12:45.094Z,31.10
2023-03-11T13:15:11.468Z,30.97
2023-03-11T13:17:37.861Z,30.88
2023-03-11T13:20:04.208Z,31.07
2023-03-11T13:22:30.630Z,31.09
2023-03-11T13:24:56.995Z,30.93
2023-03-11T13:27:23.360Z,30.72
2023-03-11T13:29:49.742Z,30.37
2023-03-11T13:32:16.151Z,29.74
2023-03-11T13:34:42.653Z,30.09
2023-03-11T13:37:09.045Z,30.28
2023-03-11T13:39:35.483Z,30.49
2023-03-11T13:42:01.854Z,29.88
2023-03-11T13:44:28.243Z,30.16
2023-03-11T13:46:54.657Z,30.31
2023-03-11T13:49:20.998Z,30.50
2023-03-11T13:51:47.412Z,30.28
2023-03-11T13:54:13.801Z,30.12
2023-03-11T13:56:40.162Z,30.11
2023-03-11T13:59:06.524Z,30.05
2023-03-11T14:01:32.942Z,30.13
2023-03-11T14:03:59.351Z,29.96
2023-03-11T14:06:25.753Z,29.65
2023-03-11T14:08:52.168Z,29.79
2023-03-11T14:11:18.677Z,30.28
2023-03-11T14:13:45.071Z,29.77
2023-03-11T14:16:11.430Z,30.34
2023-03-11T14:18:37.848Z,30.33
2023-03-11T14:21:04.182Z,30.29
2023-03-11T14:23:30.553Z,29.84
2023-03-11T14:25:57.047Z,29.75
2023-03-11T14:28:23.397Z,30.16
2023-03-11T14:30:49.991Z,29.78
2023-03-11T14:33:16.444Z,29.58
2023-03-11T14:35:43.948Z,30.07
2023-03-11T14:38:10.435Z,30.18
2023-03-11T14:40:36.925Z,29.96
2023-03-11T14:43:03.329Z,29.92
2023-03-11T14:45:29.656Z,30.00
2023-03-11T14:47:56.110Z,30.16
2023-03-11T14:50:23.503Z,30.05
2023-03-11T14:52:50.005Z,29.91
2023-03-11T14:55:16.409Z,29.94
2023-03-11T14:57:42.795Z,30.03
2023-03-11T15:00:09.235Z,30.12
2023-03-11T15:02:35.646Z,29.91
2023-03-11T15:05:02.070Z,30.22
2023-03-11T15:07:28.499Z,30.34
2023-03-11T15:09:54.915Z,30.20
2023-03-11T15:12:21.341Z,29.75
2023-03-11T15:14:47.752Z,30.46
2023-03-11T15:17:31.034Z,30.45
2023-03-11T15:20:00.565Z,30.01
2023-03-11T15:22:26.965Z,29.89
2023-03-11T15:24:53.298Z,29.61
2023-03-11T15:27:19.640Z,30.29
2023-03-11T15:29:46.069Z,31.32
2023-03-11T15:32:12.488Z,32.16
2023-03-11T15:34:38.913Z,31.28
2023-03-11T15:37:05.292Z,31.95
2023-03-11T15:39:31.675Z,31.18
2023-03-11T15:41:58.084Z,31.44
2023-03-11T15:44:24.457Z,31.01
2023-03-11T15:46:51.003Z,31.79
2023-03-11T15:49:17.379Z,31.19
2023-03-11T15:51:43.761Z,31.29
2023-03-11T15:54:10.258Z,31.68
2023-03-11T15:56:36.583Z,31.65
2023-03-11T15:59:02.989Z,31.77
2023-03-11T16:01:29.386Z,31.85
2023-03-11T16:03:55.893Z,31.77
2023-03-11T16:06:22.313Z,31.91
2023-03-11T16:08:48.754Z,31.33
2023-03-11T16:11:15.155Z,31.14
2023-03-11T16:13:41.523Z,30.32
2023-03-11T16:16:07.918Z,30.25
2023-03-11T16:18:34.328Z,30.34
2023-03-11T16:21:01.003Z,30.46
2023-03-11T16:23:27.368Z,30.18
2023-03-11T16:25:53.751Z,30.33
2023-03-11T16:28:20.129Z,30.42
2023-03-11T16:30:46.499Z,30.31
2023-03-11T16:33:12.854Z,30.24
2023-03-11T16:35:39.225Z,30.10
2023-03-11T16:38:05.555Z,29.93
2023-03-11T16:40:31.972Z,30.22
2023-03-11T16:42:58.296Z,30.41
2023-03-11T16:45:24.652Z,30.28
2023-03-11T16:47:50.993Z,30.39
2023-03-11T16:50:17.369Z,30.45
2023-03-11T16:52:43.707Z,30.34
2023-03-11T16:55:10.021Z,30.03
2023-03-11T16:57:36.373Z,30.66
2023-03-11T17:00:02.757Z,31.04
2023-03-11T17:02:29.140Z,30.56
2023-03-11T17:04:55.534Z,31.00
2023-03-11T17:07:21.915Z,31.30
2023-03-11T17:09:48.278Z,31.25
2023-03-11T17:12:14.629Z,31.72
2023-03-11T17:14:40.956Z,30.83
2023-03-11T17:17:07.306Z,31.03
2023-03-11T17:19:33.668Z,31.21
2023-03-11T17:22:00.042Z,31.08
2023-03-11T17:24:26.403Z,31.60
2023-03-11T17:26:52.820Z,31.30
2023-03-11T17:29:19.163Z,31.33
2023-03-11T17:31:45.570Z,31.51
2023-03-11T17:34:11.974Z,31.09
2023-03-11T17:36:38.288Z,31.25
2023-03-11T17:39:04.634Z,31.64
2023-03-11T17:41:30.942Z,31.49
2023-03-11T17:43:57.268Z,31.37
2023-03-11T17:46:23.893Z,31.61
2023-03-11T17:48:50.372Z,31.95
2023-03-11T17:51:16.758Z,31.89
2023-03-11T17:53:45.646Z,31.68
2023-03-11T17:56:12.318Z,31.52
2023-03-11T17:58:38.676Z,32.43
2023-03-11T18:01:05.105Z,32.83
2023-03-11T18:03:31.473Z,32.87
2023-03-11T18:05:57.784Z,32.23
2023-03-11T18:08:24.215Z,33.45
2023-03-11T18:10:50.700Z,34.20
2023-03-11T18:13:17.088Z,34.02
2023-03-11T18:15:43.632Z,33.85
2023-03-11T18:18:10.210Z,35.54
2023-03-11T18:20:36.974Z,35.48
2023-03-11T18:23:03.567Z,35.52
2023-03-11T18:25:29.945Z,36.12
2023-03-11T18:27:56.330Z,35.23
2023-03-11T18:30:22.770Z,35.25
2023-03-11T18:32:49.198Z,35.45
2023-03-11T18:35:15.591Z,35.92
2023-03-11T18:37:41.967Z,35.36
2023-03-11T18:40:08.388Z,34.79
2023-03-11T18:42:34.793Z,34.99
2023-03-11T18:45:01.211Z,35.02
2023-03-11T18:47:27.648Z,34.28
2023-03-11T18:49:54.053Z,34.05
2023-03-11T18:52:20.433Z,34.12
2023-03-11T18:54:46.858Z,34.01
2023-03-11T18:57:13.205Z,34.74
2023-03-11T18:59:39.553Z,34.64
2023-03-11T19:02:05.886Z,36.62
2023-03-11T19:04:32.268Z,35.29
2023-03-11T19:06:58.701Z,34.32
2023-03-11T19:09:25.068Z,34.29
2023-03-11T19:11:51.444Z,33.96
2023-03-11T19:14:17.846Z,33.66
2023-03-11T19:16:44.280Z,33.44
2023-03-11T19:19:11.907Z,33.20
2023-03-11T19:21:38.566Z,33.26
2023-03-11T19:24:04.921Z,32.89
2023-03-11T19:26:44.220Z,32.96
2023-03-11T19:29:11.386Z,32.60
2023-03-11T19:31:37.804Z,32.50
2023-03-11T19:34:04.227Z,32.99
2023-03-11T19:36:30.588Z,32.63
2023-03-11T19:38:56.962Z,32.41
2023-03-11T19:41:23.405Z,32.58
2023-03-11T19:43:49.765Z,32.66
2023-03-11T19:46:16.093Z,32.63
2023-03-11T19:48:42.485Z,32.55
2023-03-11T19:51:08.913Z,32.51
2023-03-11T19:53:35.269Z,32.56
2023-03-11T19:56:01.684Z,32.27
2023-03-11T19:58:30.251Z,32.77
2023-03-11T20:00:57.133Z,32.54
2023-03-11T20:03:23.520Z,32.66
2023-03-11T20:05:50.028Z,32.56
2023-03-11T20:08:16.454Z,32.77
2023-03-11T20:10:42.902Z,32.92
2023-03-11T20:13:09.302Z,32.70
2023-03-11T20:15:35.796Z,33.09
2023-03-11T20:18:02.252Z,32.66
2023-03-11T20:20:28.640Z,32.57
2023-03-11T20:22:55.100Z,32.86
2023-03-11T20:25:22.523Z,32.78
2023-03-11T20:27:48.964Z,32.61
2023-03-11T20:30:15.527Z,32.87
2023-03-11T20:32:41.981Z,32.84
2023-03-11T20:35:08.375Z,32.93
2023-03-11T20:37:34.818Z,33.26
2023-03-11T20:40:01.235Z,33.24
2023-03-11T20:42:27.577Z,33.09
2023-03-11T20:44:54.001Z,33.01
2023-03-11T20:47:20.492Z,33.61
2023-03-11T20:49:47.115Z,33.43
2023-03-11T20:52:13.654Z,33.31
2023-03-11T20:54:40.093Z,33.30
2023-03-11T20:57:06.539Z,33.82
2023-03-11T20:59:32.992Z,33.49
2023-03-11T21:01:59.425Z,33.32
2023-03-11T21:04:25.981Z,33.43
2023-03-11T21:06:52.371Z,33.73
2023-03-11T21:09:18.683Z,33.63
2023-03-11T21:11:45.126Z,33.69
2023-03-11T21:14:11.506Z,33.67
2023-03-11T21:16:38.021Z,33.98
2023-03-11T21:19:04.407Z,33.97
2023-03-11T21:21:30.756Z,34.20
2023-03-11T21:23:57.234Z,34.39
2023-03-11T21:26:23.567Z,34.28
2023-03-11T21:28:49.870Z,34.36
2023-03-11T21:31:16.330Z,34.30
2023-03-11T21:33:42.939Z,34.32
2023-03-11T21:36:09.540Z,34.48
2023-03-11T21:38:36.076Z,34.44
2023-03-11T21:41:02.558Z,34.34
2023-03-11T21:43:29.050Z,34.48
2023-03-11T21:45:55.486Z,35.00
2023-03-11T21:48:21.940Z,34.79
2023-03-11T21:50:48.447Z,34.90
2023-03-11T21:53:14.775Z,35.11
2023-03-11T21:55:41.227Z,35.16
2023-03-11T21:58:07.776Z,35.30
2023-03-11T22:00:34.181Z,35.26
2023-03-11T22:03:00.748Z,34.96
2023-03-11T22:05:27.139Z,35.37
2023-03-11T22:07:53.564Z,34.88
2023-03-11T22:10:19.952Z,35.11
2023-03-11T22:12:46.463Z,35.25
2023-03-11T22:15:13.148Z,35.54
2023-03-11T22:17:39.679Z,35.51
2023-03-11T22:20:06.201Z,35.64
2023-03-11T22:22:32.659Z,35.46
2023-03-11T22:24:58.999Z,35.79
2023-03-11T22:27:25.352Z,35.90
2023-03-11T22:29:52.813Z,35.58
2023-03-11T22:32:19.307Z,35.88
2023-03-11T22:34:45.645Z,35.89
2023-03-11T22:37:12.029Z,36.06
2023-03-11T22:39:38.386Z,35.65
2023-03-11T22:42:04.732Z,36.01
2023-03-11T22:44:31.062Z,35.96
2023-03-11T22:46:57.411Z,35.94
2023-03-11T22:49:23.788Z,36.03
2023-03-11T22:51:50.123Z,35.99
2023-03-11T22:54:16.475Z,36.03
2023-03-11T22:56:42.870Z,36.00
2023-03-11T22:59:09.207Z,36.26
2023-03-11T23:01:35.557Z,36.33
2023-03-11T23:04:01.929Z,36.01
2023-03-11T23:06:28.322Z,35.79
2023-03-11T23:08:54.698Z,35.91
2023-03-11T23:11:21.091Z,36.35
2023-03-11T23:13:47.438Z,36.74
2023-03-11T23:16:13.750Z,36.76
2023-03-11T23:18:40.128Z,36.21
2023-03-11T23:21:06.448Z,36.29
2023-03-11T23:23:32.765Z,36.63
2023-03-11T23:25:59.090Z,36.86
2023-03-11T23:28:25.467Z,36.49
2023-03-11T23:30:51.957Z,36.34
2023-03-11T23:33:18.280Z,37.05
2023-03-11T23:35:44.614Z,37.12
2023-03-11T23:38:11.021Z,36.95
2023-03-11T23:40:37.383Z,36.78
2023-03-11T23:43:03.752Z,36.88
2023-03-11T23:45:30.233Z,36.90
2023-03-11T23:47:56.540Z,37.05
2023-03-11T23:50:22.913Z,37.04
2023-03-11T23:52:49.283Z,37.25
2023-03-11T23:55:15.611Z,36.98
2023-03-11T23:57:41.924Z,37.21
